createdAt,value
2022-09-12T00:00:48.809Z,2.60
2022-09-12T00:02:53.749Z,2.55
2022-09-12T00:04:55.275Z,2.80
2022-09-12T00:06:56.714Z,1.55
2022-09-12T00:08:59.194Z,2.92
2022-09-12T00:11:04.157Z,2.45
2022-09-12T00:13:05.831Z,2.72
2022-09-12T00:15:07.497Z,2.00
2022-09-12T00:17:08.723Z,1.73
2022-09-12T00:19:10.556Z,3.03
2022-09-12T00:21:12.009Z,3.30
2022-09-12T00:23:13.886Z,3.00
2022-09-12T00:25:15.393Z,2.80
2022-09-12T00:27:16.682Z,3.15
2022-09-12T00:29:19.520Z,1.50
2022-09-12T00:31:23.766Z,3.15
2022-09-12T00:33:25.414Z,2.55
2022-09-12T00:35:26.634Z,1.60
2022-09-12T00:37:28.277Z,2.13
2022-09-12T00:39:29.503Z,2.08
2022-09-12T00:41:35.549Z,5.70
2022-09-12T00:43:41.533Z,1.73
2022-09-12T00:45:42.837Z,2.45
2022-09-12T00:47:44.422Z,3.13
2022-09-12T00:49:58.181Z,2.42
2022-09-12T00:51:59.403Z,2.90
2022-09-12T00:54:03.005Z,4.40
2022-09-12T00:56:04.275Z,2.47
2022-09-12T00:58:08.873Z,3.80
2022-09-12T01:00:15.598Z,2.85
2022-09-12T01:02:17.168Z,3.47
2022-09-12T01:04:20.046Z,4.40
2022-09-12T01:06:28.552Z,2.90
2022-09-12T01:08:29.863Z,3.78
2022-09-12T01:10:31.669Z,3.35
2022-09-12T01:12:34.426Z,3.28
2022-09-12T01:14:35.845Z,3.85
2022-09-12T01:16:37.788Z,4.15
2022-09-12T01:18:40.485Z,4.05
2022-09-12T01:20:54.638Z,3.88
2022-09-12T01:23:02.274Z,4.45
2022-09-12T01:25:06.313Z,3.85
2022-09-12T01:27:16.914Z,1.83
2022-09-12T01:29:18.131Z,5.07
2022-09-12T01:31:30.449Z,2.28
2022-09-12T01:33:31.853Z,1.83
2022-09-12T01:35:40.184Z,2.40
2022-09-12T01:37:44.669Z,2.05
2022-09-12T01:39:53.901Z,1.92
2022-09-12T01:42:04.305Z,4.75
2022-09-12T01:44:12.402Z,2.47
2022-09-12T01:46:18.041Z,2.40
2022-09-12T01:48:21.769Z,2.17
2022-09-12T01:50:25.914Z,1.98
2022-09-12T01:52:37.651Z,1.70
2022-09-12T01:54:41.158Z,2.38
2022-09-12T01:56:43.942Z,2.03
2022-09-12T01:58:47.713Z,3.05
2022-09-12T02:00:59.613Z,3.55
2022-09-12T02:03:15.519Z,2.80
2022-09-12T02:05:36.202Z,1.98
2022-09-12T02:07:37.561Z,2.75
2022-09-12T02:09:46.020Z,1.85
2022-09-12T02:11:48.189Z,2.08
2022-09-12T02:13:55.383Z,2.80
2022-09-12T02:15:58.819Z,2.28
2022-09-12T02:18:01.516Z,3.42
2022-09-12T02:20:08.485Z,5.57
2022-09-12T02:22:12.742Z,1.90
2022-09-12T02:24:14.809Z,2.28
2022-09-12T02:26:21.037Z,3.03
2022-09-12T02:28:24.723Z,2.08
2022-09-12T02:30:27.027Z,2.00
2022-09-12T02:32:32.609Z,3.25
2022-09-12T02:34:38.875Z,3.58
2022-09-12T02:36:49.889Z,1.90
2022-09-12T02:38:51.581Z,1.73
2022-09-12T02:40:52.917Z,3.42
2022-09-12T02:42:54.228Z,2.22
2022-09-12T02:44:56.010Z,2.47
2022-09-12T02:47:06.074Z,2.92
2022-09-12T02:49:09.421Z,2.70
2022-09-12T02:51:11.146Z,3.13
2022-09-12T02:53:12.460Z,3.90
2022-09-12T02:55:13.889Z,2.00
2022-09-12T02:57:19.493Z,2.80
2022-09-12T02:59:24.438Z,2.75
2022-09-12T03:01:31.675Z,2.10
2022-09-12T03:03:33.158Z,2.83
2022-09-12T03:05:37.465Z,2.25
2022-09-12T03:07:57.170Z,3.95
2022-09-12T03:10:03.268Z,2.95
2022-09-12T03:12:07.357Z,2.35
2022-09-12T03:14:27.646Z,3.42
2022-09-12T03:16:31.724Z,3.40
2022-09-12T03:18:47.519Z,2.00
2022-09-12T03:21:04.159Z,2.10
2022-09-12T03:23:09.516Z,3.45
2022-09-12T03:25:25.674Z,3.20
2022-09-12T03:27:33.113Z,2.92
2022-09-12T03:29:35.613Z,3.03
2022-09-12T03:31:36.835Z,2.30
2022-09-12T03:33:38.123Z,2.72
2022-09-12T03:35:39.390Z,5.38
2022-09-12T03:37:40.674Z,4.35
2022-09-12T03:39:41.975Z,4.07
2022-09-12T03:41:43.222Z,2.75
2022-09-12T03:43:44.649Z,3.72
2022-09-12T03:45:49.992Z,3.25
2022-09-12T03:47:51.277Z,3.72
2022-09-12T03:49:53.673Z,2.85
2022-09-12T03:51:55.013Z,2.58
2022-09-12T03:53:56.462Z,2.60
2022-09-12T03:55:57.764Z,3.92
2022-09-12T03:57:59.190Z,2.75
2022-09-12T04:00:02.051Z,4.53
2022-09-12T04:02:03.550Z,3.30
2022-09-12T04:04:04.949Z,4.18
2022-09-12T04:06:06.986Z,4.47
2022-09-12T04:08:08.221Z,3.58
2022-09-12T04:10:09.895Z,4.00
2022-09-12T04:12:11.224Z,3.10
2022-09-12T04:14:12.478Z,5.10
2022-09-12T04:16:14.642Z,2.47
2022-09-12T04:18:16.025Z,4.68
2022-09-12T04:20:17.560Z,2.75
2022-09-12T04:22:18.785Z,2.47
2022-09-12T04:24:20.253Z,6.55
2022-09-12T04:26:21.680Z,2.88
2022-09-12T04:28:23.292Z,4.53
2022-09-12T04:30:24.750Z,4.07
2022-09-12T04:32:26.043Z,4.65
2022-09-12T04:34:29.963Z,3.92
2022-09-12T04:36:31.894Z,3.75
2022-09-12T04:38:33.434Z,4.18
2022-09-12T04:40:35.063Z,4.03
2022-09-12T04:42:36.324Z,3.78
2022-09-12T04:44:37.852Z,6.35
2022-09-12T04:46:40.421Z,4.15
2022-09-12T04:48:42.128Z,3.80
2022-09-12T04:50:43.877Z,4.25
2022-09-12T04:52:49.602Z,3.70
2022-09-12T04:54:50.889Z,4.32
2022-09-12T04:56:52.507Z,3.33
2022-09-12T04:58:54.014Z,4.60
2022-09-12T05:00:55.298Z,4.70
2022-09-12T05:02:56.726Z,5.78
2022-09-12T05:04:58.757Z,6.07
2022-09-12T05:06:59.993Z,4.53
2022-09-12T05:09:01.810Z,3.90
2022-09-12T05:11:04.977Z,5.20
2022-09-12T05:13:06.221Z,5.18
2022-09-12T05:15:07.747Z,7.57
2022-09-12T05:17:09.227Z,6.05
2022-09-12T05:19:11.216Z,4.90
2022-09-12T05:21:13.791Z,5.90
2022-09-12T05:23:15.223Z,6.20
2022-09-12T05:25:16.997Z,4.10
2022-09-12T05:27:18.323Z,5.43
2022-09-12T05:29:19.842Z,5.43
2022-09-12T05:31:25.461Z,5.40
2022-09-12T05:33:26.714Z,7.88
2022-09-12T05:35:27.942Z,4.70
2022-09-12T05:37:29.219Z,5.93
2022-09-12T05:39:30.439Z,5.85
2022-09-12T05:41:33.478Z,6.40
2022-09-12T05:43:34.903Z,5.82
2022-09-12T05:45:36.139Z,4.90
2022-09-12T05:47:37.426Z,6.47
2022-09-12T05:49:38.767Z,8.80
2022-09-12T05:51:44.197Z,6.28
2022-09-12T05:53:46.982Z,4.45
2022-09-12T05:55:49.103Z,7.18
2022-09-12T05:57:50.646Z,5.45
2022-09-12T05:59:52.791Z,7.05
2022-09-12T06:01:54.009Z,4.35
2022-09-12T06:03:56.642Z,4.72
2022-09-12T06:06:01.005Z,4.70
2022-09-12T06:08:03.355Z,5.38
2022-09-12T06:10:05.470Z,5.82
2022-09-12T06:12:07.610Z,5.85
2022-09-12T06:14:10.093Z,7.25
2022-09-12T06:16:15.517Z,7.30
2022-09-12T06:18:16.831Z,7.25
2022-09-12T06:20:20.760Z,7.57
2022-09-12T06:22:22.036Z,5.30
2022-09-12T06:24:23.326Z,8.82
2022-09-12T06:26:25.672Z,5.90
2022-09-12T06:28:27.794Z,7.05
2022-09-12T06:30:29.299Z,5.97
2022-09-12T06:32:31.323Z,6.93
2022-09-12T06:34:33.583Z,5.65
2022-09-12T06:36:38.926Z,5.75
2022-09-12T06:38:40.404Z,4.43
2022-09-12T06:40:44.380Z,5.60
2022-09-12T06:42:45.826Z,6.93
2022-09-12T06:44:47.054Z,6.25
2022-09-12T06:46:48.756Z,8.20
2022-09-12T06:48:50.639Z,6.00
2022-09-12T06:51:06.414Z,6.22
2022-09-12T06:53:07.976Z,6.20
2022-09-12T06:55:09.334Z,4.68
2022-09-12T06:57:10.557Z,4.60
2022-09-12T06:59:11.901Z,5.13
2022-09-12T07:01:18.063Z,4.28
2022-09-12T07:03:19.724Z,4.28
2022-09-12T07:05:21.034Z,6.95
2022-09-12T07:07:22.450Z,5.45
2022-09-12T07:09:23.729Z,4.50
2022-09-12T07:11:26.365Z,6.65
2022-09-12T07:13:27.642Z,4.93
2022-09-12T07:15:28.911Z,3.80
2022-09-12T07:17:30.550Z,5.30
2022-09-12T07:19:31.964Z,5.43
2022-09-12T07:21:33.339Z,3.67
2022-09-12T07:23:34.751Z,4.95
2022-09-12T07:25:36.103Z,4.95
2022-09-12T07:27:37.687Z,4.95
2022-09-12T07:29:39.017Z,6.25
2022-09-12T07:31:40.243Z,6.15
2022-09-12T07:33:41.886Z,6.20
2022-09-12T07:35:43.255Z,5.57
2022-09-12T07:37:44.593Z,3.28
2022-09-12T07:39:45.880Z,5.78
2022-09-12T07:41:47.375Z,3.13
2022-09-12T07:43:51.038Z,4.13
2022-09-12T07:45:55.898Z,3.65
2022-09-12T07:47:57.163Z,3.67
2022-09-12T07:49:58.941Z,2.75
2022-09-12T07:52:00.231Z,7.95
2022-09-12T07:54:01.485Z,5.38
2022-09-12T07:56:03.631Z,3.20
2022-09-12T07:58:04.874Z,7.78
2022-09-12T08:00:07.496Z,5.93
2022-09-12T08:02:15.978Z,2.88
2022-09-12T08:04:18.251Z,10.75
2022-09-12T08:06:20.784Z,3.08
2022-09-12T08:08:22.086Z,4.72
2022-09-12T08:10:23.310Z,3.30
2022-09-12T08:12:24.585Z,4.32
2022-09-12T08:14:25.895Z,4.35
2022-09-12T08:16:31.112Z,4.68
2022-09-12T08:18:32.848Z,3.10
2022-09-12T08:20:34.072Z,3.53
2022-09-12T08:22:35.470Z,3.45
2022-09-12T08:24:36.975Z,3.17
2022-09-12T08:26:38.246Z,3.40
2022-09-12T08:28:43.253Z,5.65
2022-09-12T08:30:44.521Z,4.10
2022-09-12T08:32:45.963Z,2.83
2022-09-12T08:34:47.195Z,2.25
2022-09-12T08:36:48.481Z,1.95
2022-09-12T08:38:51.529Z,3.60
2022-09-12T08:40:55.825Z,2.53
2022-09-12T08:43:07.859Z,2.10
2022-09-12T08:45:31.951Z,3.22
2022-09-12T08:47:35.946Z,3.30
2022-09-12T08:49:52.623Z,1.70
2022-09-12T08:51:55.099Z,2.05
2022-09-12T08:53:57.022Z,2.80
2022-09-12T08:55:59.227Z,3.67
2022-09-12T08:58:01.342Z,1.98
2022-09-12T09:00:04.778Z,2.97
2022-09-12T09:02:18.216Z,2.95
2022-09-12T09:04:35.893Z,3.03
2022-09-12T09:06:55.973Z,3.03
2022-09-12T09:09:26.625Z,2.20
2022-09-12T09:11:30.858Z,2.60
2022-09-12T09:14:06.210Z,1.80
2022-09-12T09:16:26.491Z,2.45
2022-09-12T09:18:29.354Z,1.70
2022-09-12T09:20:36.197Z,2.60
2022-09-12T09:22:37.463Z,2.72
2022-09-12T09:24:43.641Z,2.75
2022-09-12T09:26:45.884Z,3.35
2022-09-12T09:28:51.485Z,2.05
2022-09-12T09:30:52.859Z,1.42
2022-09-12T09:32:56.621Z,3.80
2022-09-12T09:34:57.911Z,4.65
2022-09-12T09:37:09.899Z,4.05
2022-09-12T09:39:11.100Z,1.58
2022-09-12T09:41:20.230Z,2.63
2022-09-12T09:43:22.931Z,2.25
2022-09-12T09:45:25.109Z,2.08
2022-09-12T09:47:26.386Z,2.20
2022-09-12T09:49:30.298Z,1.92
2022-09-12T09:51:36.482Z,3.65
2022-09-12T09:53:44.444Z,4.47
2022-09-12T09:55:45.757Z,2.22
2022-09-12T09:57:47.131Z,2.60
2022-09-12T09:59:48.354Z,1.63
2022-09-12T10:01:57.626Z,2.60
2022-09-12T10:03:59.231Z,3.03
2022-09-12T10:06:01.778Z,3.08
2022-09-12T10:08:04.098Z,3.42
2022-09-12T10:10:14.255Z,3.88
2022-09-12T10:12:26.147Z,3.20
2022-09-12T10:14:40.749Z,2.35
2022-09-12T10:16:53.243Z,5.25
2022-09-12T10:18:56.150Z,2.58
2022-09-12T10:20:57.490Z,4.07
2022-09-12T10:22:59.686Z,1.83
2022-09-12T10:25:01.163Z,3.13
2022-09-12T10:27:08.439Z,3.15
2022-09-12T10:29:17.682Z,3.00
2022-09-12T10:31:29.002Z,1.45
2022-09-12T10:33:31.597Z,2.72
2022-09-12T10:35:43.055Z,4.97
2022-09-12T10:37:53.387Z,4.10
2022-09-12T10:39:57.017Z,2.05
2022-09-12T10:41:58.418Z,1.67
2022-09-12T10:44:14.626Z,2.05
2022-09-12T10:46:16.191Z,2.65
2022-09-12T10:48:29.974Z,2.78
2022-09-12T10:50:41.559Z,2.08
2022-09-12T10:52:42.796Z,2.05
2022-09-12T10:54:44.280Z,3.28
2022-09-12T10:56:55.687Z,2.35
2022-09-12T10:59:19.425Z,2.10
2022-09-12T11:01:24.525Z,1.65
2022-09-12T11:03:43.358Z,3.33
2022-09-12T11:05:44.634Z,3.30
2022-09-12T11:07:45.840Z,2.90
2022-09-12T11:09:54.709Z,2.00
2022-09-12T11:12:04.737Z,3.35
2022-09-12T11:14:24.597Z,4.05
2022-09-12T11:16:31.854Z,2.22
2022-09-12T11:18:52.018Z,3.22
2022-09-12T11:21:11.835Z,2.60
2022-09-12T11:23:29.666Z,4.30
2022-09-12T11:25:36.960Z,1.48
2022-09-12T11:27:38.171Z,1.83
2022-09-12T11:29:46.686Z,1.63
2022-09-12T11:32:07.653Z,1.45
2022-09-12T11:34:10.055Z,2.53
2022-09-12T11:36:27.315Z,2.75
2022-09-12T11:39:01.907Z,1.65
2022-09-12T11:41:08.190Z,3.10
2022-09-12T11:43:11.925Z,1.90
2022-09-12T11:45:15.633Z,2.28
2022-09-12T11:47:18.737Z,2.97
2022-09-12T11:49:27.122Z,1.55
2022-09-12T11:51:41.080Z,2.03
2022-09-12T11:53:42.950Z,1.98
2022-09-12T11:55:52.640Z,2.70
2022-09-12T11:57:58.032Z,2.38
2022-09-12T12:00:05.182Z,2.15
2022-09-12T12:02:11.709Z,2.53
2022-09-12T12:04:14.617Z,1.75
2022-09-12T12:06:25.484Z,1.63
2022-09-12T12:08:29.462Z,4.80
2022-09-12T12:10:36.712Z,1.42
2022-09-12T12:12:37.991Z,3.13
2022-09-12T12:14:44.030Z,1.65
2022-09-12T12:16:46.299Z,2.70
2022-09-12T12:18:53.499Z,1.80
2022-09-12T12:20:55.535Z,1.25
2022-09-12T12:22:56.831Z,1.05
2022-09-12T12:25:01.419Z,1.30
2022-09-12T12:27:04.261Z,1.60
2022-09-12T12:29:09.145Z,1.50
2022-09-12T12:31:10.890Z,0.80
2022-09-12T12:33:12.996Z,2.75
2022-09-12T12:35:32.626Z,1.23
2022-09-12T12:37:33.839Z,1.10
2022-09-12T12:39:37.915Z,1.65
2022-09-12T12:41:43.212Z,1.83
2022-09-12T12:43:48.873Z,2.10
2022-09-12T12:45:59.403Z,1.42
2022-09-12T12:50:06.308Z,1.30
2022-09-12T12:52:16.753Z,4.60
2022-09-12T12:54:47.593Z,2.63
2022-09-12T12:56:49.001Z,0.88
2022-09-12T12:58:57.130Z,1.98
2022-09-12T13:01:10.290Z,2.50
2022-09-12T13:03:22.264Z,1.23
2022-09-12T13:05:25.263Z,1.08
2022-09-12T13:07:31.350Z,1.30
2022-09-12T13:09:34.395Z,0.80
2022-09-12T13:11:37.885Z,1.45
2022-09-12T13:13:39.087Z,2.10
2022-09-12T13:15:40.322Z,1.27
2022-09-12T13:17:43.035Z,1.40
2022-09-12T13:19:44.499Z,0.70
2022-09-12T13:21:55.500Z,0.95
2022-09-12T13:24:02.023Z,0.80
2022-09-12T13:26:03.521Z,1.90
2022-09-12T13:28:10.679Z,0.95
2022-09-12T13:30:15.262Z,0.85
2022-09-12T13:32:17.945Z,2.72
2022-09-12T13:34:21.106Z,2.92
2022-09-12T13:36:22.890Z,1.27
2022-09-12T13:38:36.659Z,1.63
2022-09-12T13:41:01.076Z,1.67
2022-09-12T13:43:28.379Z,1.27
2022-09-12T13:45:34.918Z,1.02
2022-09-12T13:47:38.390Z,1.17
2022-09-12T13:49:40.405Z,1.92
2022-09-12T13:51:43.023Z,4.25
2022-09-12T13:53:46.101Z,2.92
2022-09-12T13:55:49.911Z,2.30
2022-09-12T13:57:59.698Z,2.33
2022-09-12T14:00:03.428Z,0.80
2022-09-12T14:02:18.295Z,2.67
2022-09-12T14:04:44.937Z,1.55
2022-09-12T14:06:46.506Z,1.10
2022-09-12T14:08:48.452Z,2.95
2022-09-12T14:10:50.591Z,0.65
2022-09-12T14:12:52.756Z,0.60
2022-09-12T14:14:54.078Z,0.80
2022-09-12T14:16:55.432Z,1.38
2022-09-12T14:18:57.373Z,1.98
2022-09-12T14:21:02.628Z,1.02
2022-09-12T14:23:20.022Z,1.55
2022-09-12T14:25:25.375Z,0.73
2022-09-12T14:27:37.256Z,0.90
2022-09-12T14:29:38.590Z,1.15
2022-09-12T14:31:41.138Z,0.98
2022-09-12T14:33:52.262Z,1.75
2022-09-12T14:36:08.742Z,1.20
2022-09-12T14:38:16.000Z,3.05
2022-09-12T14:40:22.099Z,2.45
2022-09-12T14:42:26.986Z,1.42
2022-09-12T14:44:28.677Z,0.95
2022-09-12T14:46:34.592Z,0.80
2022-09-12T14:48:37.380Z,3.47
2022-09-12T14:50:39.297Z,1.55
2022-09-12T14:52:40.673Z,0.90
2022-09-12T14:54:42.877Z,2.22
2022-09-12T14:56:52.725Z,1.90
2022-09-12T14:59:13.987Z,1.17
2022-09-12T15:01:15.323Z,2.17
2022-09-12T15:03:30.479Z,1.02
2022-09-12T15:05:31.750Z,2.67
2022-09-12T15:07:37.770Z,1.80
2022-09-12T15:09:41.688Z,1.65
2022-09-12T15:11:47.071Z,1.75
2022-09-12T15:13:48.575Z,1.92
2022-09-12T15:15:54.158Z,2.55
2022-09-12T15:17:55.602Z,1.02
2022-09-12T15:19:56.834Z,0.93
2022-09-12T15:21:58.079Z,1.25
2022-09-12T15:23:59.407Z,1.08
2022-09-12T15:26:00.773Z,1.52
2022-09-12T15:28:05.586Z,2.90
2022-09-12T15:30:07.567Z,1.33
2022-09-12T15:32:14.921Z,2.58
2022-09-12T15:34:16.438Z,1.13
2022-09-12T15:36:19.304Z,3.03
2022-09-12T15:38:24.422Z,2.03
2022-09-12T15:40:27.743Z,1.58
2022-09-12T15:42:29.246Z,1.25
2022-09-12T15:44:30.507Z,1.13
2022-09-12T15:46:31.918Z,1.45
2022-09-12T15:48:33.266Z,0.88
2022-09-12T15:50:34.474Z,2.17
2022-09-12T15:52:35.703Z,1.15
2022-09-12T15:54:36.928Z,0.60
2022-09-12T15:56:38.195Z,1.88
2022-09-12T15:58:54.675Z,0.95
2022-09-12T16:00:59.206Z,1.63
2022-09-12T16:03:00.861Z,1.65
2022-09-12T16:05:02.290Z,1.70
2022-09-12T16:07:03.971Z,2.03
2022-09-12T16:09:05.242Z,2.20
2022-09-12T16:11:18.655Z,2.60
2022-09-12T16:13:19.976Z,2.80
2022-09-12T16:15:22.466Z,1.98
2022-09-12T16:17:23.702Z,2.72
2022-09-12T16:19:25.383Z,1.95
2022-09-12T16:21:26.615Z,1.60
2022-09-12T16:23:27.917Z,1.33
2022-09-12T16:25:29.143Z,1.98
2022-09-12T16:27:30.857Z,1.52
2022-09-12T16:29:32.169Z,2.65
2022-09-12T16:31:33.510Z,1.17
2022-09-12T16:33:35.061Z,3.28
2022-09-12T16:35:36.278Z,1.42
2022-09-12T16:37:38.148Z,1.17
2022-09-12T16:39:39.447Z,2.45
2022-09-12T16:41:42.543Z,1.25
2022-09-12T16:43:44.051Z,2.22
2022-09-12T16:45:45.551Z,1.15
2022-09-12T16:47:47.318Z,1.52
2022-09-12T16:49:48.587Z,3.10
2022-09-12T16:51:49.995Z,1.63
2022-09-12T16:53:51.422Z,1.50
2022-09-12T16:55:52.614Z,3.25
2022-09-12T16:57:54.164Z,1.70
2022-09-12T16:59:55.789Z,1.40
2022-09-12T17:01:57.158Z,1.67
2022-09-12T17:03:58.853Z,1.63
2022-09-12T17:06:01.167Z,1.65
2022-09-12T17:08:02.622Z,2.67
2022-09-12T17:10:03.986Z,1.77
2022-09-12T17:12:05.317Z,1.77
2022-09-12T17:14:07.628Z,1.10
2022-09-12T17:16:11.293Z,1.27
2022-09-12T17:18:12.593Z,1.83
2022-09-12T17:20:13.866Z,2.67
2022-09-12T17:22:15.134Z,2.22
2022-09-12T17:24:17.497Z,2.60
2022-09-12T17:26:18.742Z,2.33
2022-09-12T17:28:20.182Z,2.28
2022-09-12T17:30:21.785Z,2.45
2022-09-12T17:32:23.075Z,1.75
2022-09-12T17:34:24.297Z,2.28
2022-09-12T17:36:25.840Z,3.40
2022-09-12T17:38:27.618Z,2.30
2022-09-12T17:40:48.778Z,2.50
2022-09-12T17:42:50.190Z,2.10
2022-09-12T17:44:51.618Z,2.78
2022-09-12T17:46:52.856Z,1.23
2022-09-12T17:48:55.170Z,1.60
2022-09-12T17:50:56.445Z,2.65
2022-09-12T17:52:57.693Z,1.77
2022-09-12T17:54:59.213Z,1.73
2022-09-12T17:57:00.640Z,2.08
2022-09-12T17:59:02.004Z,1.35
2022-09-12T18:01:23.679Z,2.33
2022-09-12T18:03:24.958Z,3.55
2022-09-12T18:05:26.214Z,1.95
2022-09-12T18:07:27.450Z,6.13
2022-09-12T18:09:28.807Z,1.67
2022-09-12T18:11:30.088Z,3.80
2022-09-12T18:13:34.680Z,1.73
2022-09-12T18:15:36.202Z,2.10
2022-09-12T18:17:37.608Z,3.40
2022-09-12T18:19:39.018Z,2.13
2022-09-12T18:21:40.534Z,2.03
2022-09-12T18:23:41.878Z,2.88
2022-09-12T18:25:43.137Z,2.58
2022-09-12T18:27:44.395Z,2.38
2022-09-12T18:29:58.947Z,5.90
2022-09-12T18:32:07.554Z,2.28
2022-09-12T18:34:13.465Z,2.20
2022-09-12T18:36:14.992Z,2.55
2022-09-12T18:38:16.243Z,3.67
2022-09-12T18:40:17.601Z,3.22
2022-09-12T18:42:18.951Z,2.33
2022-09-12T18:44:20.446Z,3.42
2022-09-12T18:46:21.741Z,3.80
2022-09-12T18:48:23.136Z,4.57
2022-09-12T18:50:24.633Z,3.60
2022-09-12T18:52:25.914Z,3.17
2022-09-12T18:54:27.766Z,1.55
2022-09-12T18:56:34.321Z,4.15
2022-09-12T18:58:36.311Z,2.58
2022-09-12T19:00:40.386Z,2.55
2022-09-12T19:02:41.761Z,1.95
2022-09-12T19:04:43.891Z,2.50
2022-09-12T19:06:46.337Z,2.10
2022-09-12T19:08:48.752Z,2.60
2022-09-12T19:10:56.413Z,2.78
2022-09-12T19:12:57.734Z,2.35
2022-09-12T19:14:58.958Z,2.00
2022-09-12T19:17:00.335Z,3.65
2022-09-12T19:19:02.564Z,2.55
2022-09-12T19:21:04.295Z,5.97
2022-09-12T19:23:05.600Z,4.13
2022-09-12T19:25:07.318Z,2.15
2022-09-12T19:27:08.618Z,3.75
2022-09-12T19:29:10.598Z,3.05
2022-09-12T19:31:13.093Z,2.60
2022-09-12T19:33:14.540Z,4.45
2022-09-12T19:35:16.245Z,2.45
2022-09-12T19:37:18.474Z,3.40
2022-09-12T19:39:19.926Z,1.80
2022-09-12T19:41:21.442Z,2.70
2022-09-12T19:43:22.754Z,3.13
2022-09-12T19:45:24.118Z,3.33
2022-09-12T19:47:25.507Z,7.55
2022-09-12T19:49:26.950Z,7.15
2022-09-12T19:51:28.500Z,4.47
2022-09-12T19:53:30.611Z,7.35
2022-09-12T19:55:31.890Z,6.53
2022-09-12T19:57:33.212Z,6.03
2022-09-12T19:59:34.511Z,4.35
2022-09-12T20:01:37.060Z,3.97
2022-09-12T20:03:39.027Z,5.47
2022-09-12T20:05:42.766Z,9.80
2022-09-12T20:07:44.338Z,5.85
2022-09-12T20:09:45.647Z,4.63
2022-09-12T20:11:46.984Z,9.07
2022-09-12T20:13:48.340Z,4.63
2022-09-12T20:15:49.728Z,4.20
2022-09-12T20:17:57.552Z,8.77
2022-09-12T20:19:58.891Z,4.50
2022-09-12T20:22:00.215Z,5.45
2022-09-12T20:24:03.494Z,6.85
2022-09-12T20:26:04.835Z,4.85
2022-09-12T20:28:06.191Z,6.75
2022-09-12T20:30:08.513Z,5.43
2022-09-12T20:32:10.123Z,3.85
2022-09-12T20:34:14.495Z,4.63
2022-09-12T20:36:16.915Z,6.07
2022-09-12T20:38:18.137Z,4.15
2022-09-12T20:40:19.573Z,6.25
2022-09-12T20:42:20.883Z,4.50
2022-09-12T20:44:22.116Z,3.78
2022-09-12T20:46:24.213Z,4.20
2022-09-12T20:48:25.571Z,2.58
2022-09-12T20:50:26.837Z,3.75
2022-09-12T20:52:28.179Z,2.55
2022-09-12T20:54:29.418Z,4.93
2022-09-12T20:56:31.691Z,7.40
2022-09-12T20:58:33.670Z,4.38
2022-09-12T21:00:35.084Z,5.35
2022-09-12T21:02:36.390Z,3.40
2022-09-12T21:04:37.665Z,2.55
2022-09-12T21:06:38.895Z,4.60
2022-09-12T21:08:40.398Z,3.83
2022-09-12T21:10:42.320Z,4.55
2022-09-12T21:12:43.555Z,3.72
2022-09-12T21:14:44.812Z,5.97
2022-09-12T21:16:46.059Z,3.78
2022-09-12T21:18:48.003Z,3.65
2022-09-12T21:20:52.932Z,4.82
2022-09-12T21:22:54.211Z,3.75
2022-09-12T21:24:55.618Z,3.75
2022-09-12T21:26:58.971Z,4.85
2022-09-12T21:29:03.460Z,2.90
2022-09-12T21:31:05.249Z,3.17
2022-09-12T21:33:06.542Z,3.83
2022-09-12T21:35:08.373Z,2.55
2022-09-12T21:37:09.605Z,3.88
2022-09-12T21:39:10.903Z,2.25
2022-09-12T21:41:13.620Z,2.53
2022-09-12T21:43:14.935Z,4.47
2022-09-12T21:45:16.234Z,4.47
2022-09-12T21:47:17.585Z,2.35
2022-09-12T21:49:18.830Z,5.05
2022-09-12T21:51:20.343Z,3.65
2022-09-12T21:53:21.878Z,2.53
2022-09-12T21:55:27.153Z,4.18
2022-09-12T21:57:28.396Z,6.70
2022-09-12T21:59:29.662Z,3.08
2022-09-12T22:02:08.266Z,4.82
2022-09-12T22:04:09.973Z,4.43
2022-09-12T22:06:11.651Z,2.65
2022-09-12T22:08:12.843Z,3.55
2022-09-12T22:10:14.645Z,3.47
2022-09-12T22:12:15.843Z,4.43
2022-09-12T22:14:17.451Z,4.38
2022-09-12T22:16:18.693Z,3.00
2022-09-12T22:18:19.883Z,4.00
2022-09-12T22:20:21.078Z,3.78
2022-09-12T22:22:41.027Z,3.88
2022-09-12T22:24:42.200Z,2.30
2022-09-12T22:26:45.979Z,2.35
2022-09-12T22:28:47.702Z,5.65
2022-09-12T22:30:49.025Z,4.57
2022-09-12T22:32:50.976Z,4.53
2022-09-12T22:34:52.187Z,4.05
2022-09-12T22:36:53.710Z,4.72
2022-09-12T22:38:56.318Z,5.40
2022-09-12T22:40:59.090Z,4.45
2022-09-12T22:43:00.593Z,2.95
2022-09-12T22:45:01.971Z,3.97
2022-09-12T22:47:03.242Z,2.33
2022-09-12T22:49:05.264Z,2.45
2022-09-12T22:51:06.734Z,3.67
2022-09-12T22:53:07.968Z,4.55
2022-09-12T22:55:09.638Z,3.90
2022-09-12T22:57:10.843Z,2.47
2022-09-12T22:59:12.252Z,3.63
2022-09-12T23:01:13.653Z,3.15
2022-09-12T23:03:14.962Z,4.85
2022-09-12T23:05:16.814Z,2.70
2022-09-12T23:07:18.203Z,3.10
2022-09-12T23:09:19.386Z,2.92
2022-09-12T23:11:21.381Z,2.78
2022-09-12T23:13:22.767Z,2.50
2022-09-12T23:15:24.115Z,3.88
2022-09-12T23:17:25.558Z,2.78
2022-09-12T23:19:26.750Z,4.53
2022-09-12T23:21:29.802Z,2.50
2022-09-12T23:23:31.229Z,6.68
2022-09-12T23:25:32.460Z,3.20
2022-09-12T23:27:34.741Z,2.35
2022-09-12T23:29:36.423Z,4.82
2022-09-12T23:31:37.968Z,2.60
2022-09-12T23:33:39.271Z,4.85
2022-09-12T23:35:40.662Z,2.45
2022-09-12T23:37:42.066Z,4.15
2022-09-12T23:39:43.656Z,3.22
2022-09-12T23:41:45.081Z,3.10
2022-09-12T23:43:47.131Z,2.38
2022-09-12T23:45:48.412Z,2.15
2022-09-12T23:47:49.665Z,2.63
2022-09-12T23:49:50.900Z,3.88
2022-09-12T23:51:52.278Z,4.28
2022-09-12T23:53:53.531Z,3.72
2022-09-12T23:55:54.766Z,3.53
2022-09-12T23:57:55.963Z,3.40
2022-09-12T23:59:57.198Z,6.78
